createdAt,value
2022-12-01T00:01:20.116Z,5.30
2022-12-01T00:03:47.672Z,5.74
2022-12-01T00:06:17.309Z,5.76
2022-12-01T00:09:05.754Z,5.94
2022-12-01T00:11:34.511Z,5.55
2022-12-01T00:14:02.085Z,5.67
2022-12-01T00:16:29.722Z,5.84
2022-12-01T00:18:57.351Z,5.40
2022-12-01T00:21:25.769Z,5.52
2022-12-01T00:23:55.141Z,5.92
2022-12-01T00:26:23.529Z,5.48
2022-12-01T00:28:51.743Z,5.35
2022-12-01T00:31:19.588Z,5.07
2022-12-01T00:33:47.220Z,5.00
2022-12-01T00:36:14.675Z,4.82
2022-12-01T00:38:42.050Z,4.61
2022-12-01T00:41:09.731Z,5.18
2022-12-01T00:43:37.180Z,4.79
2022-12-01T00:46:04.617Z,5.38
2022-12-01T00:48:32.250Z,4.98
2022-12-01T00:50:59.549Z,4.27
2022-12-01T00:53:26.869Z,4.29
2022-12-01T00:55:54.482Z,4.08
2022-12-01T00:58:22.659Z,4.26
2022-12-01T01:00:50.131Z,4.51
2022-12-01T01:03:17.766Z,4.47
2022-12-01T01:05:45.088Z,4.44
2022-12-01T01:08:14.931Z,4.58
2022-12-01T01:10:45.052Z,4.91
2022-12-01T01:13:13.448Z,3.78
2022-12-01T01:15:41.090Z,3.85
2022-12-01T01:18:10.426Z,3.50
2022-12-01T01:20:37.773Z,4.03
2022-12-01T01:23:05.095Z,4.21
2022-12-01T01:25:32.885Z,4.38
2022-12-01T01:28:00.199Z,4.00
2022-12-01T01:30:27.761Z,4.01
2022-12-01T01:32:55.684Z,4.32
2022-12-01T01:35:23.004Z,3.79
2022-12-01T01:37:50.977Z,4.12
2022-12-01T01:40:18.829Z,4.50
2022-12-01T01:42:46.337Z,4.02
2022-12-01T01:45:21.257Z,3.89
2022-12-01T01:47:50.171Z,4.11
2022-12-01T01:50:19.808Z,4.12
2022-12-01T01:52:51.829Z,4.04
2022-12-01T01:55:19.641Z,4.76
2022-12-01T01:57:46.997Z,4.49
2022-12-01T02:00:17.349Z,4.22
2022-12-01T02:02:46.692Z,4.08
2022-12-01T02:05:23.748Z,3.84
2022-12-01T02:07:52.512Z,3.83
2022-12-01T02:10:23.497Z,4.36
2022-12-01T02:13:26.958Z,3.62
2022-12-01T02:16:12.995Z,3.75
2022-12-01T02:18:57.332Z,3.49
2022-12-01T02:21:54.649Z,3.33
2022-12-01T02:24:46.933Z,3.41
2022-12-01T02:27:45.562Z,3.65
2022-12-01T02:30:37.658Z,4.10
2022-12-01T02:33:14.328Z,3.47
2022-12-01T02:35:56.156Z,3.45
2022-12-01T02:38:38.660Z,3.24
2022-12-01T02:41:23.145Z,3.55
2022-12-01T02:44:14.609Z,3.70
2022-12-01T02:46:46.805Z,2.94
2022-12-01T02:49:17.551Z,3.19
2022-12-01T02:51:45.346Z,2.94
2022-12-01T02:54:14.719Z,2.76
2022-12-01T02:56:44.908Z,2.60
2022-12-01T02:59:14.092Z,2.86
2022-12-01T03:02:00.039Z,2.91
2022-12-01T03:04:45.684Z,2.70
2022-12-01T03:07:36.451Z,2.07
2022-12-01T03:10:29.597Z,2.71
2022-12-01T03:13:28.170Z,2.77
2022-12-01T03:16:07.201Z,2.74
2022-12-01T03:18:54.896Z,2.67
2022-12-01T03:21:25.190Z,2.71
2022-12-01T03:24:02.062Z,2.08
2022-12-01T03:26:30.389Z,2.60
2022-12-01T03:29:06.733Z,3.19
2022-12-01T03:31:40.898Z,2.52
2022-12-01T03:34:13.684Z,2.60
2022-12-01T03:36:48.294Z,2.89
2022-12-01T03:39:19.970Z,2.90
2022-12-01T03:41:52.027Z,3.34
2022-12-01T03:44:21.969Z,2.99
2022-12-01T03:46:56.898Z,2.77
2022-12-01T03:49:25.770Z,2.76
2022-12-01T03:51:59.273Z,3.13
2022-12-01T03:55:05.492Z,3.52
2022-12-01T03:57:34.817Z,3.52
2022-12-01T04:00:02.997Z,3.04
2022-12-01T04:02:40.394Z,2.85
2022-12-01T04:05:11.369Z,2.49
2022-12-01T04:07:39.377Z,2.37
2022-12-01T04:10:07.529Z,2.56
2022-12-01T04:12:35.220Z,2.63
2022-12-01T04:15:11.143Z,2.74
2022-12-01T04:17:39.239Z,2.64
2022-12-01T04:20:07.673Z,2.57
2022-12-01T04:22:35.000Z,2.51
2022-12-01T04:25:03.669Z,3.06
2022-12-01T04:27:31.023Z,3.16
2022-12-01T04:29:58.352Z,3.29
2022-12-01T04:32:27.143Z,3.53
2022-12-01T04:34:54.430Z,3.31
2022-12-01T04:37:21.851Z,2.66
2022-12-01T04:39:49.690Z,2.71
2022-12-01T04:42:17.205Z,2.97
2022-12-01T04:44:44.517Z,3.15
2022-12-01T04:47:12.090Z,3.44
2022-12-01T04:49:39.376Z,3.06
2022-12-01T04:52:07.499Z,2.89
2022-12-01T04:54:35.126Z,3.08
2022-12-01T04:57:02.436Z,3.42
2022-12-01T04:59:29.826Z,3.43
2022-12-01T05:01:57.484Z,3.14
2022-12-01T05:04:24.832Z,3.17
2022-12-01T05:06:54.413Z,3.56
2022-12-01T05:09:22.017Z,3.01
2022-12-01T05:11:49.317Z,3.35
2022-12-01T05:14:16.635Z,3.61
2022-12-01T05:16:44.222Z,3.62
2022-12-01T05:19:30.491Z,3.49
2022-12-01T05:21:58.058Z,3.99
2022-12-01T05:24:25.740Z,3.97
2022-12-01T05:26:53.044Z,3.93
2022-12-01T05:29:20.624Z,3.41
2022-12-01T05:31:49.014Z,3.14
2022-12-01T05:34:16.506Z,2.91
2022-12-01T05:36:44.079Z,2.38
2022-12-01T05:39:11.387Z,2.60
2022-12-01T05:41:38.716Z,2.91
2022-12-01T05:44:06.300Z,3.08
2022-12-01T05:46:33.635Z,3.13
2022-12-01T05:49:00.944Z,2.80
2022-12-01T05:51:28.508Z,3.34
2022-12-01T05:53:55.812Z,3.67
2022-12-01T05:56:23.130Z,3.32
2022-12-01T05:58:50.684Z,2.81
2022-12-01T06:01:18.098Z,3.14
2022-12-01T06:03:45.735Z,3.08
2022-12-01T06:06:13.055Z,2.79
2022-12-01T06:08:40.411Z,2.81
2022-12-01T06:11:07.993Z,3.07
2022-12-01T06:13:35.340Z,2.42
2022-12-01T06:16:05.385Z,2.99
2022-12-01T06:18:35.217Z,2.60
2022-12-01T06:21:03.011Z,2.74
2022-12-01T06:23:30.859Z,2.56
2022-12-01T06:25:58.848Z,3.03
2022-12-01T06:28:26.180Z,2.78
2022-12-01T06:30:57.772Z,2.73
2022-12-01T06:33:28.804Z,3.17
2022-12-01T06:36:02.997Z,2.68
2022-12-01T06:38:31.577Z,3.28
2022-12-01T06:40:59.110Z,3.24
2022-12-01T06:43:26.692Z,3.20
2022-12-01T06:46:00.808Z,3.42
2022-12-01T06:48:28.885Z,2.91
2022-12-01T06:51:00.201Z,2.65
2022-12-01T06:53:28.703Z,3.24
2022-12-01T06:56:00.987Z,2.88
2022-12-01T06:58:28.687Z,3.25
2022-12-01T07:00:57.417Z,3.43
2022-12-01T07:03:24.836Z,3.62
2022-12-01T07:05:58.588Z,3.45
2022-12-01T07:08:30.285Z,3.56
2022-12-01T07:11:02.608Z,3.53
2022-12-01T07:13:33.695Z,3.61
2022-12-01T07:16:03.112Z,3.52
2022-12-01T07:18:31.416Z,2.92
2022-12-01T07:21:03.711Z,3.27
2022-12-01T07:23:31.748Z,3.64
2022-12-01T07:26:07.795Z,3.36
2022-12-01T07:28:35.404Z,2.87
2022-12-01T07:31:09.110Z,1.81
2022-12-01T07:33:36.930Z,2.32
2022-12-01T07:36:04.841Z,2.80
2022-12-01T07:38:33.582Z,2.51
2022-12-01T07:41:03.347Z,2.98
2022-12-01T07:43:31.987Z,3.23
2022-12-01T07:46:10.743Z,3.74
2022-12-01T07:48:39.355Z,3.96
2022-12-01T07:51:08.247Z,3.96
2022-12-01T07:53:35.797Z,3.87
2022-12-01T07:56:08.525Z,3.95
2022-12-01T07:58:36.620Z,3.99
2022-12-01T08:01:09.413Z,4.97
2022-12-01T08:03:37.451Z,4.92
2022-12-01T08:06:05.904Z,4.96
2022-12-01T08:08:35.051Z,4.94
2022-12-01T08:11:06.521Z,5.35
2022-12-01T08:13:33.907Z,5.75
2022-12-01T08:16:05.465Z,6.14
2022-12-01T08:18:39.980Z,5.75
2022-12-01T08:21:09.173Z,6.10
2022-12-01T08:23:36.915Z,6.91
2022-12-01T08:26:08.299Z,6.42
2022-12-01T08:28:36.323Z,7.21
2022-12-01T08:31:10.949Z,7.57
2022-12-01T08:33:38.296Z,8.17
2022-12-01T08:36:06.489Z,8.77
2022-12-01T08:38:33.871Z,9.08
2022-12-01T08:41:03.025Z,9.75
2022-12-01T08:46:18.069Z,10.74
2022-12-01T08:48:45.691Z,11.06
2022-12-01T08:51:15.542Z,11.15
2022-12-01T08:53:45.860Z,11.48
2022-12-01T08:56:21.212Z,11.58
2022-12-01T08:58:48.616Z,11.32
2022-12-01T09:01:16.910Z,11.34
2022-12-01T09:03:44.758Z,11.78
2022-12-01T09:06:22.806Z,11.97
2022-12-01T09:08:50.488Z,12.26
2022-12-01T09:11:18.990Z,12.43
2022-12-01T09:13:52.944Z,11.84
2022-12-01T09:16:22.327Z,11.62
2022-12-01T09:18:49.744Z,12.22
2022-12-01T09:21:26.635Z,11.84
2022-12-01T09:23:54.287Z,11.01
2022-12-01T09:26:22.140Z,11.23
2022-12-01T09:28:54.029Z,10.48
2022-12-01T09:31:23.523Z,10.47
2022-12-01T09:33:56.329Z,9.44
2022-12-01T09:36:24.324Z,9.00
2022-12-01T09:38:51.765Z,8.24
2022-12-01T09:41:26.308Z,8.61
2022-12-01T09:44:01.022Z,7.72
2022-12-01T09:46:34.763Z,7.90
2022-12-01T09:49:03.888Z,7.11
2022-12-01T09:51:36.112Z,7.83
2022-12-01T09:54:04.086Z,8.14
2022-12-01T09:56:36.444Z,8.29
2022-12-01T09:59:08.098Z,7.50
2022-12-01T10:01:41.870Z,7.89
2022-12-01T10:04:13.276Z,7.64
2022-12-01T10:06:54.607Z,6.91
2022-12-01T10:10:00.121Z,6.37
2022-12-01T10:12:33.390Z,6.49
2022-12-01T10:15:25.357Z,6.83
2022-12-01T10:18:13.728Z,6.62
2022-12-01T10:20:45.847Z,7.07
2022-12-01T10:23:41.805Z,6.90
2022-12-01T10:26:26.206Z,7.24
2022-12-01T10:29:27.874Z,6.86
2022-12-01T10:32:00.561Z,7.50
2022-12-01T10:34:30.649Z,7.68
2022-12-01T10:36:58.431Z,7.36
2022-12-01T10:39:30.002Z,7.79
2022-12-01T10:42:08.273Z,7.63
2022-12-01T10:44:36.149Z,7.98
2022-12-01T10:47:04.163Z,7.74
2022-12-01T10:49:40.125Z,7.38
2022-12-01T10:52:08.324Z,7.39
2022-12-01T10:54:40.670Z,7.86
2022-12-01T10:57:15.585Z,7.93
2022-12-01T11:00:02.267Z,7.67
2022-12-01T11:02:32.185Z,7.88
2022-12-01T11:05:05.305Z,7.90
2022-12-01T11:07:36.086Z,7.14
2022-12-01T11:10:17.675Z,7.04
2022-12-01T11:12:53.387Z,6.87
2022-12-01T11:15:27.167Z,7.49
2022-12-01T11:18:22.721Z,7.91
2022-12-01T11:21:15.116Z,7.59
2022-12-01T11:23:50.823Z,7.58
2022-12-01T11:26:33.011Z,7.73
2022-12-01T11:29:03.585Z,7.96
2022-12-01T11:31:42.606Z,7.93
2022-12-01T11:34:20.063Z,8.21
2022-12-01T11:36:50.391Z,8.11
2022-12-01T11:39:38.515Z,8.58
2022-12-01T11:42:25.097Z,8.35
2022-12-01T11:45:05.578Z,8.00
2022-12-01T11:47:32.953Z,8.98
2022-12-01T11:50:23.966Z,8.85
2022-12-01T11:52:51.260Z,9.02
2022-12-01T11:55:26.965Z,9.32
2022-12-01T11:57:57.500Z,9.31
2022-12-01T12:00:28.390Z,7.85
2022-12-01T12:03:20.011Z,7.57
2022-12-01T12:06:38.340Z,8.55
2022-12-01T12:09:16.246Z,8.88
2022-12-01T12:12:01.700Z,9.56
2022-12-01T12:14:36.077Z,8.95
2022-12-01T12:17:20.154Z,8.78
2022-12-01T12:20:07.643Z,9.49
2022-12-01T12:22:41.818Z,9.75
2022-12-01T12:25:23.296Z,9.28
2022-12-01T12:28:06.028Z,9.77
2022-12-01T12:30:50.925Z,9.89
2022-12-01T12:33:44.382Z,9.96
2022-12-01T12:36:35.914Z,10.27
2022-12-01T12:39:22.168Z,10.03
2022-12-01T12:41:52.629Z,10.33
2022-12-01T12:44:49.631Z,10.05
2022-12-01T12:48:14.422Z,9.27
2022-12-01T12:51:03.493Z,9.61
2022-12-01T12:53:40.399Z,9.77
2022-12-01T12:56:13.018Z,9.90
2022-12-01T12:58:53.761Z,9.39
2022-12-01T13:01:26.597Z,9.18
2022-12-01T13:04:00.705Z,8.74
2022-12-01T13:06:50.283Z,7.91
2022-12-01T13:09:22.142Z,8.60
2022-12-01T13:12:08.629Z,8.12
2022-12-01T13:14:39.991Z,8.36
2022-12-01T13:17:17.251Z,8.68
2022-12-01T13:19:45.908Z,9.27
2022-12-01T13:22:14.374Z,8.32
2022-12-01T13:24:42.052Z,8.02
2022-12-01T13:27:09.660Z,7.68
2022-12-01T13:29:47.757Z,7.92
2022-12-01T13:32:33.791Z,7.95
2022-12-01T13:35:05.528Z,8.38
2022-12-01T13:37:35.776Z,7.21
2022-12-01T13:40:22.949Z,7.54
2022-12-01T13:43:10.508Z,8.05
2022-12-01T13:45:40.225Z,8.70
2022-12-01T13:48:27.672Z,9.08
2022-12-01T13:50:57.784Z,8.32
2022-12-01T13:53:28.442Z,8.79
2022-12-01T13:56:04.529Z,8.93
2022-12-01T13:58:35.130Z,8.49
2022-12-01T14:01:21.107Z,8.65
2022-12-01T14:04:18.486Z,8.65
2022-12-01T14:06:50.758Z,8.61
2022-12-01T14:09:31.967Z,8.58
2022-12-01T14:12:03.001Z,8.37
2022-12-01T14:14:39.697Z,8.71
2022-12-01T14:17:24.355Z,8.38
2022-12-01T14:19:52.598Z,8.56
2022-12-01T14:22:39.973Z,8.37
2022-12-01T14:25:19.906Z,8.21
2022-12-01T14:27:59.777Z,8.18
2022-12-01T14:30:39.611Z,8.36
2022-12-01T14:33:47.501Z,8.36
2022-12-01T14:36:17.933Z,8.42
2022-12-01T14:38:46.468Z,8.45
2022-12-01T14:41:25.820Z,8.46
2022-12-01T14:44:03.847Z,8.91
2022-12-01T14:46:42.637Z,8.20
2022-12-01T14:49:17.923Z,8.32
2022-12-01T14:51:47.678Z,8.34
2022-12-01T14:54:19.561Z,8.05
2022-12-01T14:56:48.424Z,7.90
2022-12-01T14:59:22.139Z,7.89
2022-12-01T15:01:51.684Z,7.70
2022-12-01T15:04:19.821Z,7.84
2022-12-01T15:06:47.463Z,7.67
2022-12-01T15:09:36.019Z,7.63
2022-12-01T15:12:08.869Z,7.74
2022-12-01T15:14:38.817Z,7.59
2022-12-01T15:17:08.885Z,8.14
2022-12-01T15:19:38.748Z,7.48
2022-12-01T15:22:17.185Z,7.80
2022-12-01T15:24:45.779Z,7.35
2022-12-01T15:27:31.230Z,7.25
2022-12-01T15:30:03.466Z,7.62
2022-12-01T15:32:32.969Z,7.13
2022-12-01T15:35:05.387Z,7.24
2022-12-01T15:37:42.625Z,7.29
2022-12-01T15:43:07.384Z,7.21
2022-12-01T15:45:51.547Z,7.71
2022-12-01T15:48:34.752Z,6.94
2022-12-01T15:51:18.293Z,7.50
2022-12-01T15:53:50.056Z,7.07
2022-12-01T15:56:25.220Z,6.82
2022-12-01T15:58:56.888Z,6.72
2022-12-01T16:01:30.130Z,7.03
2022-12-01T16:04:03.769Z,6.83
2022-12-01T16:06:34.154Z,6.91
2022-12-01T16:09:16.609Z,6.53
2022-12-01T16:12:04.114Z,6.75
2022-12-01T16:14:35.006Z,6.69
2022-12-01T16:17:03.065Z,6.45
2022-12-01T16:19:32.178Z,6.94
2022-12-01T16:22:12.081Z,6.81
2022-12-01T16:24:46.771Z,6.98
2022-12-01T16:27:29.070Z,6.59
2022-12-01T16:30:02.117Z,6.16
2022-12-01T16:32:39.716Z,6.24
2022-12-01T16:35:27.362Z,6.36
2022-12-01T16:37:55.404Z,6.13
2022-12-01T16:40:23.746Z,6.24
2022-12-01T16:42:51.034Z,5.99
2022-12-01T16:45:19.320Z,6.51
2022-12-01T16:47:49.600Z,6.72
2022-12-01T16:50:19.591Z,5.97
2022-12-01T16:52:47.343Z,6.23
2022-12-01T16:55:52.692Z,6.23
2022-12-01T16:58:20.976Z,6.12
2022-12-01T17:00:52.797Z,6.08
2022-12-01T17:03:22.980Z,6.10
2022-12-01T17:05:50.828Z,5.82
2022-12-01T17:08:18.312Z,6.33
2022-12-01T17:10:49.761Z,6.65
2022-12-01T17:13:23.472Z,6.41
2022-12-01T17:15:54.271Z,5.86
2022-12-01T17:18:23.634Z,5.52
2022-12-01T17:21:03.143Z,5.71
2022-12-01T17:23:33.036Z,5.94
2022-12-01T17:26:01.377Z,5.64
2022-12-01T17:28:29.636Z,5.34
2022-12-01T17:31:01.529Z,5.52
2022-12-01T17:33:29.603Z,6.23
2022-12-01T17:36:01.767Z,5.92
2022-12-01T17:38:29.487Z,6.16
2022-12-01T17:41:11.418Z,6.07
2022-12-01T17:43:40.016Z,5.63
2022-12-01T17:46:09.518Z,5.20
2022-12-01T17:48:39.669Z,5.10
2022-12-01T17:51:09.892Z,5.07
2022-12-01T17:53:39.490Z,5.03
2022-12-01T17:56:13.924Z,5.41
2022-12-01T17:58:42.422Z,5.38
2022-12-01T18:01:16.109Z,5.84
2022-12-01T18:03:44.709Z,5.69
2022-12-01T18:06:12.638Z,5.38
2022-12-01T18:08:40.881Z,5.56
2022-12-01T18:11:11.957Z,5.35
2022-12-01T18:13:42.241Z,5.22
2022-12-01T18:16:12.889Z,5.02
2022-12-01T18:18:40.526Z,4.69
2022-12-01T18:21:11.437Z,4.85
2022-12-01T18:23:39.780Z,4.84
2022-12-01T18:26:15.708Z,5.43
2022-12-01T18:28:44.452Z,4.81
2022-12-01T18:31:15.886Z,5.22
2022-12-01T18:33:45.112Z,4.56
2022-12-01T18:36:18.716Z,4.46
2022-12-01T18:38:47.702Z,4.56
2022-12-01T18:41:16.905Z,4.40
2022-12-01T18:46:29.933Z,4.47
2022-12-01T18:49:02.357Z,4.95
2022-12-01T18:51:35.368Z,4.76
2022-12-01T18:54:07.200Z,5.18
2022-12-01T18:56:35.384Z,4.74
2022-12-01T18:59:07.586Z,4.76
2022-12-01T19:01:37.979Z,4.72
2022-12-01T19:04:07.892Z,4.67
2022-12-01T19:06:37.458Z,4.47
2022-12-01T19:09:06.868Z,4.01
2022-12-01T19:11:34.701Z,3.96
2022-12-01T19:14:03.977Z,4.44
2022-12-01T19:16:31.959Z,4.27
2022-12-01T19:19:01.880Z,4.28
2022-12-01T19:21:36.480Z,4.03
2022-12-01T19:24:04.578Z,4.25
2022-12-01T19:26:32.726Z,4.29
2022-12-01T19:29:00.782Z,4.60
2022-12-01T19:31:28.858Z,4.61
2022-12-01T19:33:57.045Z,4.35
2022-12-01T19:36:28.125Z,4.82
2022-12-01T19:38:57.638Z,4.64
2022-12-01T19:41:26.444Z,4.00
2022-12-01T19:43:56.307Z,3.91
2022-12-01T19:46:25.909Z,3.98
2022-12-01T19:49:00.692Z,4.28
2022-12-01T19:51:32.533Z,4.34
2022-12-01T19:54:03.077Z,4.02
2022-12-01T19:56:31.732Z,4.02
2022-12-01T19:59:00.965Z,4.15
2022-12-01T20:01:29.464Z,4.32
2022-12-01T20:03:57.849Z,4.49
2022-12-01T20:06:29.620Z,4.48
2022-12-01T20:08:59.941Z,4.76
2022-12-01T20:11:30.243Z,4.41
2022-12-01T20:13:57.901Z,3.83
2022-12-01T20:16:27.204Z,3.85
2022-12-01T20:18:55.451Z,3.80
2022-12-01T20:21:28.107Z,4.06
2022-12-01T20:24:00.638Z,3.62
2022-12-01T20:26:34.085Z,3.82
2022-12-01T20:29:08.423Z,4.10
2022-12-01T20:31:37.267Z,4.01
2022-12-01T20:34:13.694Z,3.92
2022-12-01T20:36:41.881Z,3.60
2022-12-01T20:39:10.174Z,3.49
2022-12-01T20:41:38.897Z,3.89
2022-12-01T20:44:07.937Z,3.96
2022-12-01T20:46:37.361Z,3.96
2022-12-01T20:49:08.322Z,3.95
2022-12-01T20:51:36.771Z,3.93
2022-12-01T20:56:54.985Z,3.65
2022-12-01T20:59:22.620Z,3.27
2022-12-01T21:01:50.412Z,3.73
2022-12-01T21:04:18.153Z,3.75
2022-12-01T21:06:46.794Z,3.01
2022-12-01T21:09:15.243Z,2.80
2022-12-01T21:12:07.280Z,3.10
2022-12-01T21:15:00.211Z,3.53
2022-12-01T21:17:36.576Z,3.23
2022-12-01T21:20:09.206Z,3.42
2022-12-01T21:22:37.010Z,3.41
2022-12-01T21:25:12.443Z,2.93
2022-12-01T21:27:40.092Z,3.55
2022-12-01T21:30:16.309Z,3.04
2022-12-01T21:32:44.681Z,2.86
2022-12-01T21:35:20.828Z,3.00
2022-12-01T21:37:49.283Z,2.75
2022-12-01T21:40:19.266Z,2.88
2022-12-01T21:42:46.635Z,3.32
2022-12-01T21:45:18.238Z,3.39
2022-12-01T21:47:45.571Z,3.32
2022-12-01T21:50:21.079Z,3.36
2022-12-01T21:52:49.110Z,2.93
2022-12-01T21:55:16.337Z,2.43
2022-12-01T21:57:48.404Z,2.84
2022-12-01T22:00:29.619Z,2.79
2022-12-01T22:03:00.307Z,2.88
2022-12-01T22:05:37.341Z,2.50
2022-12-01T22:08:07.726Z,2.77
2022-12-01T22:11:01.355Z,2.91
2022-12-01T22:13:44.188Z,2.89
2022-12-01T22:16:23.545Z,2.96
2022-12-01T22:18:54.050Z,3.00
2022-12-01T22:21:30.539Z,3.05
2022-12-01T22:24:06.011Z,2.53
2022-12-01T22:26:35.885Z,2.94
2022-12-01T22:29:16.611Z,2.84
2022-12-01T22:31:44.862Z,2.71
2022-12-01T22:34:14.186Z,3.03
2022-12-01T22:36:41.651Z,2.86
2022-12-01T22:39:26.270Z,2.65
2022-12-01T22:41:59.004Z,3.13
2022-12-01T22:44:28.039Z,3.16
2022-12-01T22:46:59.967Z,2.60
2022-12-01T22:49:29.801Z,2.69
2022-12-01T22:52:01.123Z,2.55
2022-12-01T22:54:39.062Z,3.11
2022-12-01T22:57:25.146Z,3.25
2022-12-01T22:59:53.151Z,3.21
2022-12-01T23:02:31.930Z,3.00
2022-12-01T23:05:01.554Z,3.59
2022-12-01T23:07:37.193Z,3.31
2022-12-01T23:10:20.836Z,2.92
2022-12-01T23:12:50.617Z,3.06
2022-12-01T23:15:34.913Z,2.65
2022-12-01T23:18:27.000Z,2.67
2022-12-01T23:20:58.937Z,3.01
2022-12-01T23:23:32.147Z,3.47
2022-12-01T23:26:01.780Z,3.80
2022-12-01T23:28:29.634Z,4.04
2022-12-01T23:30:58.932Z,3.44
2022-12-01T23:33:28.566Z,3.29
2022-12-01T23:35:59.880Z,2.93
2022-12-01T23:38:39.121Z,2.92
2022-12-01T23:41:23.972Z,3.57
2022-12-01T23:43:54.123Z,3.37
2022-12-01T23:46:24.545Z,3.32
2022-12-01T23:48:56.041Z,2.88
2022-12-01T23:51:50.295Z,3.24
2022-12-01T23:54:25.734Z,3.02
2022-12-01T23:56:56.165Z,3.24
2022-12-01T23:59:23.864Z,3.47
